Provost, Canada
Current Conditions -  °F | °C
As of 1:00 AM on Monday 24 Nov 2014 (Local Time) from CYLL Reporting Station
Overcast Overcast  
Wind Chill:   Ceiling: 9000
Heat Index: 14°   Visibility: 9mi
Dew Point: 12°   Wind: 8mph
Humidity: 93%   Direction: 230°SW
Pressure: 29.76"   Gusts: NA
Location:  52.35°N, 110.27°W
Report Text: CYLL 240800Z AUTO 23007KT 9SM BKN090 OVC120 M10/M11 A2976 RMK SLP125
Loading
Personal Weather Stations






























Interactive Weather Map New forecast layout! Learn more

10-Day Weather Forecast

Advertisements
Track Severe Weather on mobile